Time;durP1;ratioP1;P1;durP2;ratioP2;P2;SDS_P1;SDS_P2;PMS_P1;PMS_P2;Temp;Humidity;BMP_temperature;BMP_pressure;BME280_temperature;BME280_humidity;BME280_pressure;Samples;Min_cycle;Max_cycle;Signal;HPM_P1;HPM_P2
2021/07/14 00:00:28;;;;;;;23.58;21.10;;;21.50;99.90;;;;;;6153695;23;20161;-70
2021/07/14 00:02:55;;;;;;;22.80;20.23;;;21.50;99.90;;;;;;6153987;23;20172;-71
2021/07/14 00:05:23;;;;;;;27.25;21.30;;;21.40;99.90;;;;;;6154384;23;20251;-70
2021/07/14 00:07:51;;;;;;;23.08;20.27;;;21.40;99.90;;;;;;6153943;23;20165;-70
2021/07/14 00:10:20;;;;;;;23.10;20.70;;;21.30;99.90;;;;;;6173934;23;20237;-75
2021/07/14 00:12:57;;;;;;;24.13;21.08;;;21.20;99.90;;;;;;6182584;23;20164;-75
2021/07/14 00:23:41;;;;;;;24.15;21.60;;;21.10;99.90;;;;;;6183146;23;20605;-75
2021/07/14 00:26:08;;;;;;;24.05;20.98;;;21.20;99.90;;;;;;6183413;23;20164;-75
2021/07/14 00:28:35;;;;;;;24.48;21.85;;;21.10;99.90;;;;;;6182391;23;20164;-75
2021/07/14 00:31:12;;;;;;;24.23;20.45;;;21.20;99.90;;;;;;6182140;23;20263;-75
2021/07/14 00:33:39;;;;;;;25.35;22.35;;;21.20;99.90;;;;;;6182983;23;20532;-75
2021/07/14 00:36:06;;;;;;;25.35;22.45;;;21.10;99.90;;;;;;6182663;23;20161;-75
2021/07/14 00:38:33;;;;;;;26.02;23.27;;;21.10;99.90;;;;;;6182599;23;20167;-75
2021/07/14 00:41:00;;;;;;;26.70;23.10;;;21.10;99.90;;;;;;6182604;23;20171;-75
2021/07/14 00:43:27;;;;;;;24.55;21.88;;;21.10;99.90;;;;;;6183869;23;20494;-75
2021/07/14 00:45:53;;;;;;;27.25;23.85;;;21.00;99.90;;;;;;6183616;23;20239;-75
2021/07/14 00:48:26;;;;;;;28.05;22.95;;;20.90;99.90;;;;;;6183915;23;20195;-75
2021/07/14 00:50:53;;;;;;;26.90;22.63;;;21.00;99.90;;;;;;6182952;23;20561;-75
2021/07/14 00:53:20;;;;;;;26.98;23.95;;;20.90;99.90;;;;;;6183374;23;20160;-75
2021/07/14 00:55:47;;;;;;;29.30;24.08;;;21.00;99.90;;;;;;6185140;23;20170;-75
2021/07/14 00:58:14;;;;;;;24.42;21.67;;;21.00;99.90;;;;;;6185558;23;20549;-75
2021/07/14 01:00:41;;;;;;;26.15;23.33;;;21.10;99.90;;;;;;6184707;23;20160;-75
2021/07/14 01:03:08;;;;;;;27.55;23.00;;;21.10;99.90;;;;;;6185432;23;20160;-75
2021/07/14 01:05:40;;;;;;;29.65;24.15;;;21.10;99.90;;;;;;6185180;23;20160;-75
2021/07/14 01:08:14;;;;;;;28.13;25.13;;;21.10;99.90;;;;;;6185135;23;20161;-75
2021/07/14 01:10:44;;;;;;;26.35;23.25;;;21.10;99.90;;;;;;6184160;23;20207;-75
2021/07/14 01:13:15;;;;;;;25.40;22.48;;;21.10;99.90;;;;;;6185209;23;20160;-75
2021/07/14 01:15:50;;;;;;;26.50;22.65;;;21.10;99.90;;;;;;6185204;23;20730;-75
2021/07/14 01:18:23;;;;;;;26.35;23.42;;;21.10;99.90;;;;;;6185050;23;20166;-75
2021/07/14 01:20:58;;;;;;;26.98;22.85;;;21.10;99.90;;;;;;6184786;23;20163;-75
2021/07/14 01:23:35;;;;;;;26.92;22.70;;;21.10;99.90;;;;;;6185110;23;20489;-75
2021/07/14 01:26:17;;;;;;;24.33;21.65;;;21.10;99.90;;;;;;6185464;23;20160;-75
2021/07/14 01:28:49;;;;;;;26.63;21.70;;;21.10;99.90;;;;;;6158784;23;20170;-75
2021/07/14 01:31:20;;;;;;;26.25;22.90;;;21.10;99.90;;;;;;6184252;23;20188;-75
2021/07/14 01:33:50;;;;;;;25.30;22.02;;;21.00;99.90;;;;;;6184842;23;20166;-75
2021/07/14 01:36:20;;;;;;;26.88;22.25;;;21.00;99.90;;;;;;6184485;23;20629;-75
2021/07/14 01:38:48;;;;;;;27.88;23.73;;;21.00;99.90;;;;;;6184768;23;20475;-75
2021/07/14 01:41:16;;;;;;;26.42;23.23;;;21.00;99.90;;;;;;6183914;23;20180;-75
2021/07/14 01:43:49;;;;;;;26.83;22.65;;;21.00;99.90;;;;;;6185090;23;20164;-75
2021/07/14 01:46:18;;;;;;;25.35;22.48;;;21.00;99.90;;;;;;6184620;23;20662;-75
2021/07/14 01:48:46;;;;;;;25.23;22.38;;;20.90;99.90;;;;;;6184766;23;20167;-75
2021/07/14 01:51:14;;;;;;;25.17;22.05;;;20.90;99.90;;;;;;6183844;23;20188;-75
2021/07/14 01:53:44;;;;;;;26.13;22.27;;;20.90;99.90;;;;;;6184871;23;20690;-75
2021/07/14 01:56:12;;;;;;;24.42;21.90;;;20.90;99.90;;;;;;6185070;23;20170;-75
2021/07/14 01:58:42;;;;;;;25.80;22.17;;;20.90;99.90;;;;;;6184650;23;20164;-75
2021/07/14 02:01:13;;;;;;;27.05;21.98;;;20.80;99.90;;;;;;6183898;23;20156;-75
2021/07/14 02:03:55;;;;;;;23.98;21.10;;;20.80;99.90;;;;;;6184320;23;20560;-72
2021/07/14 02:06:24;;;;;;;26.42;21.13;;;20.90;99.90;;;;;;6184663;23;20171;-73
2021/07/14 02:08:51;;;;;;;25.10;21.10;;;20.80;99.90;;;;;;6182352;23;20206;-72
2021/07/14 02:11:23;;;;;;;27.55;21.45;;;20.80;99.90;;;;;;6184676;23;20408;-72
2021/07/14 02:13:52;;;;;;;23.90;21.38;;;20.80;99.90;;;;;;6184445;23;20182;-72
2021/07/14 02:16:21;;;;;;;22.58;19.55;;;20.90;99.90;;;;;;6184658;23;20539;-75
2021/07/14 02:18:55;;;;;;;24.80;21.33;;;20.80;99.90;;;;;;6184284;23;20160;-75
2021/07/14 02:21:22;;;;;;;23.65;20.95;;;20.70;99.90;;;;;;6156726;23;20613;-75
2021/07/14 02:23:49;;;;;;;24.27;20.75;;;20.70;99.90;;;;;;6184620;23;20175;-75
2021/07/14 02:26:16;;;;;;;24.23;20.45;;;20.70;99.90;;;;;;6184223;23;20451;-74
2021/07/14 02:28:43;;;;;;;24.65;19.50;;;20.70;99.90;;;;;;6184017;23;20210;-74
2021/07/14 02:31:10;;;;;;;24.05;19.45;;;20.70;99.90;;;;;;6183833;23;20180;-75
2021/07/14 02:33:39;;;;;;;22.75;19.63;;;20.70;99.90;;;;;;6184273;23;20557;-75
2021/07/14 02:36:11;;;;;;;23.20;20.25;;;20.70;99.90;;;;;;6183840;23;20160;-74
2021/07/14 02:38:41;;;;;;;23.70;20.73;;;20.70;99.90;;;;;;6184730;23;20160;-74
2021/07/14 02:41:14;;;;;;;23.60;21.00;;;20.60;99.90;;;;;;6184304;23;20473;-74
2021/07/14 02:43:46;;;;;;;23.60;19.92;;;20.70;99.90;;;;;;6184313;23;20582;-74
2021/07/14 02:46:18;;;;;;;23.63;21.02;;;20.60;99.90;;;;;;6183692;23;20242;-74
2021/07/14 02:48:48;;;;;;;23.55;21.00;;;20.60;99.90;;;;;;6184569;23;20186;-74
2021/07/14 02:51:15;;;;;;;24.52;19.98;;;20.60;99.90;;;;;;6182912;23;20187;-74
2021/07/14 02:53:46;;;;;;;26.38;22.42;;;20.50;99.90;;;;;;6182623;23;20168;-74
2021/07/14 02:56:17;;;;;;;25.42;21.00;;;20.50;99.90;;;;;;6184077;23;20603;-74
2021/07/14 02:58:48;;;;;;;25.95;20.77;;;20.50;99.90;;;;;;6184082;23;20629;-74
2021/07/14 03:01:16;;;;;;;23.65;20.90;;;20.60;99.90;;;;;;6184132;23;20599;-74
2021/07/14 03:03:44;;;;;;;27.83;20.50;;;20.50;99.90;;;;;;6183758;23;20171;-74
2021/07/14 03:06:14;;;;;;;24.58;20.15;;;20.60;99.90;;;;;;6183837;23;20215;-74
2021/07/14 03:08:46;;;;;;;24.92;20.23;;;20.60;99.90;;;;;;6183655;23;20167;-74
2021/07/14 03:11:13;;;;;;;25.58;20.88;;;20.60;99.90;;;;;;6184159;23;20298;-74
2021/07/14 03:13:41;;;;;;;27.27;20.55;;;20.50;99.90;;;;;;6184377;23;20160;-74
2021/07/14 03:16:08;;;;;;;25.38;21.92;;;20.60;99.90;;;;;;6184277;23;20164;-74
2021/07/14 03:18:37;;;;;;;26.13;21.80;;;20.50;99.90;;;;;;6183285;23;20500;-74
2021/07/14 03:21:04;;;;;;;29.08;22.05;;;20.50;99.90;;;;;;6183878;23;20484;-74
2021/07/14 03:23:34;;;;;;;24.38;20.25;;;20.60;99.90;;;;;;6183332;23;20165;-74
2021/07/14 03:26:02;;;;;;;26.60;22.25;;;20.50;99.90;;;;;;6183704;23;20164;-74
2021/07/14 03:28:31;;;;;;;26.13;21.35;;;20.50;99.90;;;;;;6183974;23;20211;-74
2021/07/14 03:31:01;;;;;;;31.00;23.02;;;20.60;99.90;;;;;;6183105;23;20164;-74
2021/07/14 03:33:29;;;;;;;29.17;22.35;;;20.50;99.90;;;;;;6184170;23;20619;-75
2021/07/14 03:35:59;;;;;;;26.10;22.40;;;20.50;99.90;;;;;;6183456;23;20223;-75
2021/07/14 03:38:28;;;;;;;29.15;23.17;;;20.60;99.90;;;;;;6184119;23;20591;-75
2021/07/14 03:40:57;;;;;;;27.00;23.15;;;20.60;99.90;;;;;;6183799;23;20475;-75
2021/07/14 03:43:26;;;;;;;33.67;25.80;;;20.50;99.90;;;;;;6183335;23;20170;-75
2021/07/14 03:45:54;;;;;;;33.63;24.88;;;20.50;99.90;;;;;;6183235;23;20235;-75
2021/07/14 03:48:23;;;;;;;30.25;23.05;;;20.50;99.90;;;;;;6184162;23;20207;-75
2021/07/14 03:50:52;;;;;;;30.67;23.38;;;20.50;99.90;;;;;;6183422;23;20457;-75
2021/07/14 03:53:21;;;;;;;32.35;23.50;;;20.50;99.90;;;;;;6183315;23;20190;-75
2021/07/14 03:55:49;;;;;;;27.60;23.83;;;20.40;99.90;;;;;;6183225;23;20164;-75
2021/07/14 03:58:17;;;;;;;27.75;24.33;;;20.40;99.90;;;;;;6183552;23;20160;-75
2021/07/14 04:00:44;;;;;;;29.20;24.33;;;20.40;99.90;;;;;;6183262;23;20171;-75
2021/07/14 04:03:12;;;;;;;32.83;24.23;;;20.40;99.90;;;;;;6183580;23;20174;-76
2021/07/14 04:05:43;;;;;;;32.30;24.73;;;20.30;99.90;;;;;;6183836;23;20160;-76
2021/07/14 04:08:11;;;;;;;32.80;25.33;;;20.40;99.90;;;;;;6183921;23;20821;-76
2021/07/14 04:10:38;;;;;;;29.13;23.80;;;20.40;99.90;;;;;;6183673;23;20183;-76
2021/07/14 04:13:06;;;;;;;32.00;25.67;;;20.40;99.90;;;;;;6183236;23;20230;-76
2021/07/14 04:15:34;;;;;;;31.13;24.70;;;20.40;99.90;;;;;;6184033;23;20240;-75
2021/07/14 04:18:01;;;;;;;31.75;24.73;;;20.40;99.90;;;;;;6183732;23;20164;-75
2021/07/14 04:20:28;;;;;;;33.70;26.60;;;20.30;99.90;;;;;;6183387;23;20172;-76
2021/07/14 04:22:55;;;;;;;36.88;27.85;;;20.30;99.90;;;;;;6182898;23;20230;-75
2021/07/14 04:25:22;;;;;;;33.92;27.35;;;20.30;99.90;;;;;;6183314;23;20603;-75
2021/07/14 04:27:49;;;;;;;37.58;26.58;;;20.30;99.90;;;;;;6183638;23;20175;-75
2021/07/14 04:30:17;;;;;;;33.75;27.00;;;20.30;99.90;;;;;;6184611;23;20164;-75
2021/07/14 04:32:46;;;;;;;35.30;27.20;;;20.40;99.90;;;;;;6184883;23;20187;-74
2021/07/14 04:35:13;;;;;;;35.42;28.00;;;20.30;99.90;;;;;;6186166;23;20466;-75
2021/07/14 04:37:40;;;;;;;34.10;27.70;;;20.40;99.90;;;;;;6185843;23;20160;-75
2021/07/14 04:40:09;;;;;;;36.50;27.80;;;20.40;99.90;;;;;;6184940;23;20190;-73
2021/07/14 04:42:36;;;;;;;36.30;28.05;;;20.40;99.90;;;;;;6186472;23;20609;-74
2021/07/14 04:45:03;;;;;;;36.20;28.75;;;20.40;99.90;;;;;;6186151;23;20591;-73
2021/07/14 04:47:30;;;;;;;37.97;29.67;;;20.50;99.90;;;;;;6186473;23;20160;-74
2021/07/14 04:49:58;;;;;;;39.58;31.20;;;20.50;99.90;;;;;;6185251;23;20171;-74
2021/07/14 04:52:25;;;;;;;40.00;28.33;;;20.50;99.90;;;;;;6185086;23;20263;-74
2021/07/14 04:54:52;;;;;;;38.40;29.50;;;20.50;99.90;;;;;;6185681;23;20244;-74
2021/07/14 04:57:19;;;;;;;37.25;30.05;;;20.40;99.90;;;;;;6185854;23;20425;-74
2021/07/14 04:59:46;;;;;;;39.75;30.63;;;20.40;99.90;;;;;;6184051;23;20484;-74
2021/07/14 05:02:12;;;;;;;37.88;29.10;;;20.50;99.90;;;;;;6184867;23;20187;-74
2021/07/14 05:04:39;;;;;;;37.65;28.88;;;20.50;99.90;;;;;;6184853;23;20160;-74
2021/07/14 05:07:07;;;;;;;41.15;30.88;;;20.50;99.90;;;;;;6185532;23;20190;-73
2021/07/14 05:09:34;;;;;;;39.70;31.35;;;20.40;99.90;;;;;;6184976;23;20270;-73
2021/07/14 05:12:01;;;;;;;39.47;31.05;;;20.40;99.90;;;;;;6184744;23;20190;-73
2021/07/14 05:14:29;;;;;;;39.38;30.35;;;20.40;99.90;;;;;;6185568;23;20247;-72
2021/07/14 05:16:56;;;;;;;39.92;31.30;;;20.50;99.90;;;;;;6185490;23;20160;-73
2021/07/14 05:19:22;;;;;;;38.55;31.40;;;20.50;99.90;;;;;;6185475;23;20453;-73
2021/07/14 05:21:50;;;;;;;37.13;29.70;;;20.40;99.90;;;;;;6184731;23;20164;-72
2021/07/14 05:24:18;;;;;;;41.60;30.92;;;20.40;99.90;;;;;;6185733;23;20171;-73
2021/07/14 05:26:45;;;;;;;40.67;31.10;;;20.50;99.90;;;;;;6185057;23;20250;-73
2021/07/14 05:29:12;;;;;;;37.58;30.45;;;20.60;99.90;;;;;;6185085;23;20255;-73
2021/07/14 05:31:39;;;;;;;40.90;30.90;;;20.60;99.90;;;;;;6185187;23;20160;-73
2021/07/14 05:34:06;;;;;;;42.42;32.85;;;20.70;99.90;;;;;;6184627;23;20163;-73
2021/07/14 05:36:32;;;;;;;44.15;31.65;;;20.60;99.90;;;;;;6185128;23;20468;-73
2021/07/14 05:38:59;;;;;;;40.03;30.75;;;20.70;99.90;;;;;;6184946;23;20242;-73
2021/07/14 05:41:28;;;;;;;44.30;32.13;;;20.70;99.90;;;;;;6184154;23;20242;-73
2021/07/14 05:43:55;;;;;;;42.33;33.67;;;20.80;99.90;;;;;;6184895;23;20198;-73
2021/07/14 05:46:22;;;;;;;42.35;30.85;;;20.70;99.90;;;;;;6185603;23;20536;-73
2021/07/14 05:48:49;;;;;;;39.17;31.45;;;20.80;99.90;;;;;;6185189;23;20479;-73
2021/07/14 05:51:17;;;;;;;42.00;31.92;;;20.70;99.90;;;;;;6185058;23;20164;-73
2021/07/14 05:53:43;;;;;;;41.05;32.63;;;20.70;99.90;;;;;;6184610;23;20190;-73
2021/07/14 05:56:10;;;;;;;41.05;32.92;;;20.60;99.90;;;;;;6185829;23;20160;-73
2021/07/14 05:58:38;;;;;;;40.00;31.33;;;20.60;99.90;;;;;;6184097;23;20239;-73
2021/07/14 06:01:05;;;;;;;42.45;32.70;;;20.60;99.90;;;;;;6185664;23;20591;-73
2021/07/14 06:03:32;;;;;;;43.78;32.58;;;20.70;99.90;;;;;;6184667;23;20163;-73
2021/07/14 06:05:59;;;;;;;40.88;32.28;;;20.70;99.90;;;;;;6184506;23;20160;-73
2021/07/14 06:08:26;;;;;;;41.10;31.88;;;20.60;99.90;;;;;;6184390;23;20164;-73
2021/07/14 06:10:53;;;;;;;42.67;32.58;;;20.70;99.90;;;;;;6184092;23;20183;-73
2021/07/14 06:13:21;;;;;;;43.63;33.90;;;20.70;99.90;;;;;;6185132;23;20184;-73
2021/07/14 06:15:49;;;;;;;42.50;32.35;;;20.70;99.90;;;;;;6184225;23;20160;-73
2021/07/14 06:18:16;;;;;;;41.65;31.58;;;20.70;99.90;;;;;;6185100;23;20168;-72
2021/07/14 06:20:43;;;;;;;43.70;34.30;;;20.80;99.90;;;;;;6184488;23;20190;-73
2021/07/14 06:23:10;;;;;;;44.80;32.92;;;20.80;99.90;;;;;;6184626;23;20171;-73
2021/07/14 06:25:44;;;;;;;44.60;32.55;;;20.70;99.90;;;;;;6184460;23;20618;-73
2021/07/14 06:28:13;;;;;;;42.53;31.83;;;20.80;99.90;;;;;;6183653;23;20202;-73
2021/07/14 06:30:40;;;;;;;45.20;34.03;;;20.90;99.90;;;;;;6184517;23;20164;-73
2021/07/14 06:33:08;;;;;;;41.35;32.33;;;21.00;99.90;;;;;;6184404;23;20206;-73
2021/07/14 06:35:36;;;;;;;43.45;33.17;;;20.90;99.90;;;;;;6185166;23;20171;-73
2021/07/14 06:38:03;;;;;;;38.92;31.67;;;21.00;99.90;;;;;;6183663;23;20159;-73
2021/07/14 06:40:31;;;;;;;41.38;33.33;;;20.90;99.90;;;;;;6183778;23;20164;-73
2021/07/14 06:42:59;;;;;;;43.10;33.55;;;21.00;99.90;;;;;;6184196;23;20168;-73
2021/07/14 06:45:27;;;;;;;43.00;32.13;;;21.00;99.90;;;;;;6184016;23;20168;-73
2021/07/14 06:47:54;;;;;;;43.67;34.67;;;21.10;99.90;;;;;;6184068;23;20619;-73
2021/07/14 06:50:22;;;;;;;41.28;34.20;;;21.00;99.90;;;;;;6184309;23;20167;-73
2021/07/14 06:52:49;;;;;;;43.28;32.42;;;20.90;99.90;;;;;;6183244;23;20188;-73
2021/07/14 06:55:16;;;;;;;41.45;32.72;;;20.90;99.90;;;;;;6183892;23;20167;-73
2021/07/14 06:57:45;;;;;;;43.75;33.92;;;20.90;99.90;;;;;;6184318;23;20235;-73
2021/07/14 07:00:13;;;;;;;43.42;33.60;;;20.90;99.90;;;;;;6182867;23;20164;-73
2021/07/14 07:02:41;;;;;;;43.17;33.40;;;20.80;99.90;;;;;;6184072;23;20157;-73
2021/07/14 07:05:09;;;;;;;43.72;34.50;;;20.80;99.90;;;;;;6183766;23;20164;-73
2021/07/14 07:07:37;;;;;;;42.47;33.33;;;20.90;99.90;;;;;;6158103;23;20164;-73
2021/07/14 07:10:05;;;;;;;40.30;32.10;;;20.90;99.90;;;;;;6183486;23;20205;-73
2021/07/14 07:12:32;;;;;;;40.75;31.52;;;20.90;99.90;;;;;;6184036;23;20180;-73
2021/07/14 07:14:58;;;;;;;44.10;33.47;;;20.90;99.90;;;;;;6183828;23;20160;-73
2021/07/14 07:17:25;;;;;;;45.42;33.30;;;20.80;99.90;;;;;;6184283;23;20599;-73
2021/07/14 07:19:52;;;;;;;44.50;34.35;;;20.90;99.90;;;;;;6183748;23;20251;-73
2021/07/14 07:22:19;;;;;;;43.65;32.05;;;21.00;99.90;;;;;;6184336;23;20646;-73
2021/07/14 07:24:47;;;;;;;46.97;33.33;;;20.90;99.90;;;;;;6184197;23;20168;-73
2021/07/14 07:27:14;;;;;;;41.83;32.80;;;20.80;99.90;;;;;;6183014;23;20242;-73
2021/07/14 07:29:41;;;;;;;45.35;33.70;;;20.80;99.90;;;;;;6183818;23;20243;-73
2021/07/14 07:32:08;;;;;;;43.65;34.13;;;20.90;99.90;;;;;;6183821;23;20186;-73
2021/07/14 07:34:35;;;;;;;42.65;33.10;;;21.00;99.90;;;;;;6183823;23;20262;-73
2021/07/14 07:37:03;;;;;;;43.65;33.75;;;21.00;99.90;;;;;;6184073;23;20167;-73
2021/07/14 07:39:30;;;;;;;45.58;33.53;;;21.00;99.90;;;;;;6183637;23;20160;-73
2021/07/14 07:42:01;;;;;;;43.97;31.92;;;21.10;99.90;;;;;;6183831;23;20160;-73
2021/07/14 07:44:28;;;;;;;46.28;33.58;;;21.20;99.90;;;;;;6183348;23;20156;-73
2021/07/14 07:46:55;;;;;;;44.60;33.83;;;21.10;99.90;;;;;;6183976;23;20164;-73
2021/07/14 07:49:22;;;;;;;43.53;33.33;;;21.30;99.90;;;;;;6183653;23;20493;-73
2021/07/14 07:51:49;;;;;;;41.75;32.20;;;21.30;99.90;;;;;;6183709;23;20238;-73
2021/07/14 07:54:16;;;;;;;43.95;31.35;;;21.30;99.90;;;;;;6183913;23;20183;-73
2021/07/14 07:56:43;;;;;;;44.13;31.02;;;21.40;99.90;;;;;;6184162;23;20160;-73
2021/07/14 07:59:11;;;;;;;44.60;33.70;;;21.60;99.90;;;;;;6184334;23;20464;-73
2021/07/14 08:01:39;;;;;;;41.90;31.80;;;21.70;99.90;;;;;;6183355;23;20164;-73
2021/07/14 08:04:06;;;;;;;38.88;30.48;;;21.70;99.90;;;;;;6184116;23;20170;-73
2021/07/14 08:06:33;;;;;;;37.72;30.65;;;21.70;99.90;;;;;;6186072;23;20163;-73
2021/07/14 08:09:00;;;;;;;37.90;29.65;;;21.70;99.90;;;;;;6185730;23;20193;-73
2021/07/14 08:11:27;;;;;;;40.67;30.33;;;21.90;99.90;;;;;;6185726;23;20170;-73
2021/07/14 08:13:55;;;;;;;36.58;29.15;;;21.70;99.90;;;;;;6185984;23;20190;-73
2021/07/14 08:16:23;;;;;;;36.30;29.58;;;21.70;99.90;;;;;;6185894;23;20210;-73
2021/07/14 08:18:50;;;;;;;37.63;30.00;;;21.60;99.90;;;;;;6185821;23;20212;-73
2021/07/14 08:21:17;;;;;;;39.25;29.75;;;21.70;99.90;;;;;;6185867;23;20179;-73
2021/07/14 08:23:44;;;;;;;36.15;27.88;;;21.70;99.90;;;;;;6185505;23;20187;-73
2021/07/14 08:26:12;;;;;;;36.10;28.77;;;21.80;99.90;;;;;;6185590;23;20242;-76
2021/07/14 08:28:39;;;;;;;37.67;30.10;;;21.70;99.90;;;;;;6184831;23;20528;-76
2021/07/14 08:31:05;;;;;;;39.75;29.75;;;21.70;99.90;;;;;;6185320;23;20360;-76
2021/07/14 08:33:34;;;;;;;36.55;28.85;;;21.70;99.90;;;;;;6185241;23;20180;-76
2021/07/14 08:36:01;;;;;;;35.78;28.73;;;21.90;99.90;;;;;;6185633;23;20646;-76
2021/07/14 08:38:28;;;;;;;39.10;28.45;;;22.00;99.90;;;;;;6186070;23;20160;-76
2021/07/14 08:40:55;;;;;;;35.22;28.13;;;22.00;99.90;;;;;;6185277;23;20172;-76
2021/07/14 08:43:27;;;;;;;35.50;28.85;;;22.00;99.90;;;;;;6184861;23;20174;-75
2021/07/14 08:45:54;;;;;;;33.42;27.00;;;21.90;99.90;;;;;;6185888;23;20180;-76
2021/07/14 08:48:21;;;;;;;32.22;26.85;;;22.10;99.90;;;;;;6185360;23;20238;-76
2021/07/14 08:50:57;;;;;;;32.60;26.15;;;22.20;99.90;;;;;;6184937;23;20170;-76
2021/07/14 08:53:24;;;;;;;32.90;26.85;;;22.20;99.90;;;;;;6185841;23;20190;-76
2021/07/14 08:55:52;;;;;;;34.63;27.33;;;22.20;99.90;;;;;;6185275;23;20164;-76
2021/07/14 08:58:21;;;;;;;32.58;26.30;;;22.30;99.90;;;;;;6186177;23;20246;-75
2021/07/14 09:00:51;;;;;;;36.22;27.73;;;22.60;99.90;;;;;;6184942;23;20243;-76
2021/07/14 09:03:18;;;;;;;33.42;26.38;;;22.50;99.90;;;;;;6185475;23;20164;-76
2021/07/14 09:05:45;;;;;;;32.60;25.70;;;22.60;99.90;;;;;;6185105;23;20164;-76
2021/07/14 09:08:14;;;;;;;29.73;23.70;;;22.70;99.90;;;;;;6185775;23;20584;-76
2021/07/14 09:10:41;;;;;;;28.45;23.58;;;22.60;99.90;;;;;;6184615;23;20249;-76
2021/07/14 09:13:11;;;;;;;29.48;23.83;;;22.60;99.90;;;;;;6185545;23;20218;-76
2021/07/14 09:15:42;;;;;;;29.52;24.52;;;22.70;99.90;;;;;;6184494;23;20174;-76
2021/07/14 09:18:09;;;;;;;28.20;23.38;;;22.60;99.90;;;;;;6184876;23;20164;-76
2021/07/14 09:20:37;;;;;;;28.88;23.98;;;22.60;99.90;;;;;;6185255;23;20502;-76
2021/07/14 09:23:06;;;;;;;28.77;23.83;;;22.60;99.90;;;;;;6184856;23;20171;-77
2021/07/14 09:25:42;;;;;;;30.50;23.35;;;22.50;99.90;;;;;;6185155;23;20535;-76
2021/07/14 09:28:10;;;;;;;29.10;24.65;;;22.40;99.90;;;;;;6183353;23;20160;-76
2021/07/14 09:30:38;;;;;;;28.95;24.13;;;22.20;99.90;;;;;;6184427;23;20242;-76
2021/07/14 09:33:07;;;;;;;28.52;25.05;;;22.20;99.90;;;;;;6183843;23;20172;-76
2021/07/14 09:35:37;;;;;;;30.92;24.73;;;22.20;99.90;;;;;;6184907;23;20170;-76
2021/07/14 09:38:07;;;;;;;31.58;24.90;;;22.00;99.90;;;;;;6183914;23;20163;-76
2021/07/14 09:40:34;;;;;;;29.75;24.52;;;21.90;99.90;;;;;;6183366;23;20163;-76
2021/07/14 09:43:05;;;;;;;31.55;24.55;;;22.00;99.90;;;;;;6183970;23;20172;-76
2021/07/14 09:45:45;;;;;;;30.33;24.50;;;22.00;99.90;;;;;;6183553;23;20251;-76
2021/07/14 09:48:13;;;;;;;29.95;24.33;;;22.00;99.90;;;;;;6176778;23;20179;-76
2021/07/14 09:50:42;;;;;;;31.42;25.23;;;22.00;99.90;;;;;;6178857;23;20187;-77
2021/07/14 09:53:11;;;;;;;31.25;26.30;;;22.00;99.90;;;;;;6179248;23;20188;-77
2021/07/14 09:55:39;;;;;;;30.40;25.08;;;22.00;99.90;;;;;;6179139;23;20183;-77
2021/07/14 09:58:16;;;;;;;31.70;25.50;;;21.70;99.90;;;;;;6179323;23;20523;-77
2021/07/14 10:00:46;;;;;;;29.73;25.10;;;21.70;99.90;;;;;;6178550;23;20186;-77
2021/07/14 10:03:19;;;;;;;32.38;27.08;;;21.80;99.90;;;;;;6176366;23;20517;-77
2021/07/14 10:05:49;;;;;;;32.88;25.83;;;21.90;99.90;;;;;;6179502;23;20218;-77
2021/07/14 10:08:21;;;;;;;31.65;25.73;;;21.80;99.90;;;;;;6178961;23;20210;-77
2021/07/14 10:10:51;;;;;;;31.98;24.48;;;21.70;99.90;;;;;;6179569;23;20274;-77
2021/07/14 10:13:23;;;;;;;29.48;24.20;;;21.90;99.90;;;;;;6179389;23;20187;-77
2021/07/14 10:16:03;;;;;;;30.83;23.23;;;21.80;99.90;;;;;;6178629;23;20259;-77
2021/07/14 10:18:32;;;;;;;25.02;21.13;;;21.70;99.90;;;;;;6178928;23;20583;-77
2021/07/14 10:21:01;;;;;;;24.92;20.17;;;21.60;99.90;;;;;;6178566;23;20194;-77
2021/07/14 10:23:30;;;;;;;25.02;20.60;;;21.70;99.90;;;;;;6180624;23;20183;-76
2021/07/14 10:25:59;;;;;;;24.90;20.15;;;21.70;99.90;;;;;;6179751;23;20477;-77
2021/07/14 10:28:29;;;;;;;24.42;19.27;;;21.70;99.90;;;;;;6178645;23;20179;-77
2021/07/14 10:30:57;;;;;;;27.25;21.38;;;21.50;99.90;;;;;;6178814;23;20186;-76
2021/07/14 10:33:26;;;;;;;25.75;21.38;;;21.40;99.90;;;;;;6179320;23;20631;-77
2021/07/14 10:35:54;;;;;;;26.52;22.50;;;21.50;99.90;;;;;;6178955;23;20179;-76
2021/07/14 10:38:23;;;;;;;26.88;22.05;;;21.60;99.90;;;;;;6177539;23;20206;-77
2021/07/14 10:40:51;;;;;;;26.45;20.55;;;21.30;99.90;;;;;;6177183;23;20650;-77
2021/07/14 10:43:23;;;;;;;22.98;18.73;;;21.20;99.90;;;;;;6175065;23;20164;-77
2021/07/14 10:45:52;;;;;;;21.33;17.88;;;21.10;99.90;;;;;;6178305;23;20234;-76
2021/07/14 10:48:22;;;;;;;24.15;18.35;;;21.10;99.90;;;;;;6181480;23;20163;-77
2021/07/14 10:50:50;;;;;;;25.42;19.52;;;21.10;99.90;;;;;;6182762;23;20168;-76
2021/07/14 10:53:18;;;;;;;25.05;19.55;;;21.30;99.90;;;;;;6184247;23;20174;-76
2021/07/14 10:55:46;;;;;;;25.33;18.38;;;21.30;99.90;;;;;;6183358;23;20191;-77
2021/07/14 10:58:16;;;;;;;25.08;18.92;;;21.20;99.90;;;;;;6183743;23;20160;-77
2021/07/14 11:00:45;;;;;;;24.17;17.52;;;21.20;99.90;;;;;;6183307;23;20485;-77
2021/07/14 11:03:43;;;;;;;20.75;16.75;;;21.10;99.90;;;;;;6183353;23;20167;-76
2021/07/14 11:06:13;;;;;;;18.65;15.27;;;21.20;99.90;;;;;;6179112;23;20172;-76
2021/07/14 11:08:42;;;;;;;15.50;12.82;;;21.10;99.90;;;;;;6183162;23;20243;-76
2021/07/14 11:11:11;;;;;;;17.92;12.90;;;21.30;99.90;;;;;;6182748;23;20164;-77
2021/07/14 11:13:39;;;;;;;14.57;11.45;;;21.20;99.90;;;;;;6183351;23;20166;-77
2021/07/14 11:16:29;;;;;;;14.88;11.30;;;21.20;99.90;;;;;;6182950;23;20254;-76
2021/07/14 11:19:02;;;;;;;11.38;9.13;;;21.40;99.90;;;;;;6182329;23;20251;-76
2021/07/14 11:22:02;;;;;;;12.82;8.52;;;21.40;99.90;;;;;;6182910;23;20164;-76
2021/07/14 11:24:58;;;;;;;34.88;22.25;;;21.40;99.90;;;;;;6091424;23;20169;-76
2021/07/14 11:27:43;;;;;;;8.15;7.35;;;21.30;99.90;;;;;;6181662;23;20175;-76
2021/07/14 11:30:27;;;;;;;7.78;6.30;;;21.50;99.90;;;;;;6181451;23;20261;-76
2021/07/14 11:32:56;;;;;;;9.38;7.50;;;21.60;99.90;;;;;;6183189;23;20192;-76
2021/07/14 11:35:26;;;;;;;9.52;7.47;;;22.10;99.90;;;;;;6182254;23;20188;-76
2021/07/14 11:38:02;;;;;;;9.07;6.40;;;22.10;99.90;;;;;;6182331;23;20179;-75
2021/07/14 11:40:42;;;;;;;7.53;6.25;;;22.10;99.90;;;;;;6182410;23;20179;-75
2021/07/14 11:43:19;;;;;;;8.95;6.88;;;21.90;99.90;;;;;;6182317;23;20166;-75
2021/07/14 11:45:48;;;;;;;9.38;6.97;;;21.70;99.90;;;;;;6182867;23;20160;-75
2021/07/14 11:48:17;;;;;;;11.95;8.00;;;21.70;99.90;;;;;;6181707;23;20160;-75
2021/07/14 11:50:51;;;;;;;7.90;6.07;;;21.80;99.90;;;;;;6182525;23;20598;-75
2021/07/14 11:53:37;;;;;;;5.90;4.35;;;21.60;99.90;;;;;;6182227;23;20246;-75
2021/07/14 11:56:07;;;;;;;4.00;3.53;;;21.50;99.90;;;;;;6182308;23;20549;-75
2021/07/14 11:59:02;;;;;;;4.93;3.70;;;21.30;99.90;;;;;;6183636;23;20182;-75
2021/07/14 12:01:58;;;;;;;3.70;2.95;;;21.50;99.90;;;;;;6183080;23;20159;-75
2021/07/14 12:04:27;;;;;;;7.00;3.60;;;21.40;99.90;;;;;;6159176;23;20162;-75
2021/07/14 12:07:02;;;;;;;7.00;2.67;;;21.60;99.90;;;;;;6183361;23;20603;-75
2021/07/14 12:09:33;;;;;;;3.90;2.97;;;21.50;99.90;;;;;;6181803;23;20197;-75
2021/07/14 12:12:02;;;;;;;6.15;3.20;;;21.30;99.90;;;;;;6181717;23;20248;-75
2021/07/14 12:14:32;;;;;;;4.18;3.08;;;21.40;99.90;;;;;;6180721;23;20678;-75
2021/07/14 12:17:02;;;;;;;4.82;3.10;;;21.10;99.90;;;;;;6180704;23;20168;-75
2021/07/14 12:19:30;;;;;;;3.15;2.75;;;21.10;99.90;;;;;;6180715;23;20164;-75
2021/07/14 12:22:03;;;;;;;3.88;2.50;;;21.10;99.90;;;;;;6178366;23;20188;-74
2021/07/14 12:24:34;;;;;;;5.10;2.67;;;21.30;99.90;;;;;;6180476;23;20179;-75
2021/07/14 12:27:07;;;;;;;3.42;2.17;;;21.30;99.90;;;;;;6179952;23;20188;-75
2021/07/14 12:29:34;;;;;;;14.98;2.70;;;21.00;99.90;;;;;;6180698;23;20573;-75
2021/07/14 12:32:01;;;;;;;3.72;2.42;;;20.70;99.90;;;;;;6180275;23;20165;-75
2021/07/14 12:34:30;;;;;;;2.85;2.58;;;20.50;99.90;;;;;;6180601;23;20195;-75
2021/07/14 12:36:58;;;;;;;5.45;2.20;;;20.40;99.90;;;;;;6180729;23;20164;-74
2021/07/14 12:39:28;;;;;;;1.75;1.65;;;20.50;99.90;;;;;;6180665;23;20621;-74
2021/07/14 12:41:59;;;;;;;3.17;2.10;;;20.40;99.90;;;;;;6180717;23;20610;-75
2021/07/14 12:44:26;;;;;;;2.47;1.80;;;20.40;99.90;;;;;;6180476;23;20160;-75
2021/07/14 12:46:54;;;;;;;2.47;1.95;;;20.10;99.90;;;;;;6180542;23;20160;-75